createdAt,value
2023-01-15T00:02:09.889Z,100095.06
2023-01-15T00:04:36.902Z,100093.66
2023-01-15T00:07:04.624Z,100092.10
2023-01-15T00:09:31.721Z,100088.64
2023-01-15T00:11:58.698Z,100086.58
2023-01-15T00:14:25.666Z,100089.23
2023-01-15T00:16:53.314Z,100092.11
2023-01-15T00:19:20.469Z,100091.96
2023-01-15T00:21:47.418Z,100091.33
2023-01-15T00:24:46.632Z,100087.56
2023-01-15T00:27:32.878Z,100090.17
2023-01-15T00:29:59.937Z,100089.63
2023-01-15T00:32:29.774Z,100086.13
2023-01-15T00:34:58.744Z,100081.52
2023-01-15T00:37:25.699Z,100081.27
2023-01-15T00:39:52.659Z,100080.58
2023-01-15T00:42:19.585Z,100081.80
2023-01-15T00:44:48.092Z,100079.21
2023-01-15T00:47:15.443Z,100079.13
2023-01-15T00:49:42.872Z,100075.00
2023-01-15T00:52:10.376Z,100072.09
2023-01-15T00:54:37.423Z,100068.83
2023-01-15T00:57:04.473Z,100066.80
2023-01-15T00:59:31.524Z,100067.78
2023-01-15T01:01:58.799Z,100066.33
2023-01-15T01:04:25.823Z,100065.87
2023-01-15T01:06:52.894Z,100064.78
2023-01-15T01:09:19.945Z,100060.54
2023-01-15T01:11:46.878Z,100058.65
2023-01-15T01:14:13.868Z,100057.06
2023-01-15T01:16:42.229Z,100056.20
2023-01-15T01:19:18.563Z,100060.80
2023-01-15T01:21:46.353Z,100061.85
2023-01-15T01:24:18.128Z,100060.84
2023-01-15T01:26:45.976Z,100060.83
2023-01-15T01:29:14.102Z,100056.81
2023-01-15T01:31:41.207Z,100058.64
2023-01-15T01:34:08.690Z,100056.06
2023-01-15T01:36:36.671Z,100059.82
2023-01-15T01:39:04.334Z,100059.98
2023-01-15T01:41:32.103Z,100055.83
2023-01-15T01:44:06.424Z,100051.52
2023-01-15T01:46:35.122Z,100050.27
2023-01-15T01:49:08.507Z,100052.17
2023-01-15T01:51:44.926Z,100052.55
2023-01-15T01:54:11.934Z,100052.88
2023-01-15T01:56:38.984Z,100056.63
2023-01-15T01:59:07.301Z,100061.83
2023-01-15T02:01:34.359Z,100064.14
2023-01-15T02:04:01.337Z,100069.88
2023-01-15T02:06:28.236Z,100070.27
2023-01-15T02:08:55.375Z,100067.48
2023-01-15T02:11:23.352Z,100067.14
2023-01-15T02:13:50.710Z,100069.35
2023-01-15T02:16:37.455Z,100069.48
2023-01-15T02:19:36.286Z,100069.98
2023-01-15T02:22:29.945Z,100068.14
2023-01-15T02:25:25.242Z,100068.20
2023-01-15T02:27:59.284Z,100068.05
2023-01-15T02:30:29.640Z,100066.38
2023-01-15T02:33:16.491Z,100068.14
2023-01-15T02:35:47.653Z,100065.23
2023-01-15T02:38:19.739Z,100060.72
2023-01-15T02:40:50.356Z,100058.72
2023-01-15T02:43:17.872Z,100057.30
2023-01-15T02:45:48.545Z,100055.76
2023-01-15T02:48:18.170Z,100054.05
2023-01-15T02:50:49.154Z,100052.71
2023-01-15T02:53:26.528Z,100054.95
2023-01-15T02:55:56.025Z,100044.96
2023-01-15T02:58:30.090Z,100040.84
2023-01-15T03:00:57.556Z,100035.86
2023-01-15T03:03:38.642Z,100035.36
2023-01-15T03:06:13.319Z,100035.52
2023-01-15T03:08:40.201Z,100037.77
2023-01-15T03:11:12.179Z,100037.16
2023-01-15T03:13:48.996Z,100039.23
2023-01-15T03:16:39.794Z,100047.80
2023-01-15T03:19:19.901Z,100051.63
2023-01-15T03:21:56.574Z,100048.41
2023-01-15T03:24:33.865Z,100045.53
2023-01-15T03:27:01.445Z,100045.54
2023-01-15T03:29:37.587Z,100045.00
2023-01-15T03:32:06.218Z,100041.90
2023-01-15T03:34:45.000Z,100034.30
2023-01-15T03:37:12.870Z,100032.20
2023-01-15T03:39:41.196Z,100032.48
2023-01-15T03:42:31.276Z,100035.05
2023-01-15T03:45:07.289Z,100038.25
2023-01-15T03:47:55.728Z,100035.80
2023-01-15T03:50:27.583Z,100035.63
2023-01-15T03:53:11.019Z,100035.45
2023-01-15T03:56:17.556Z,100033.91
2023-01-15T03:58:49.495Z,100034.64
2023-01-15T04:01:20.780Z,100035.73
2023-01-15T04:03:49.170Z,100030.95
2023-01-15T04:06:17.804Z,100031.65
2023-01-15T04:08:44.810Z,100030.43
2023-01-15T04:11:12.183Z,100028.42
2023-01-15T04:13:46.899Z,100025.30
2023-01-15T04:16:29.609Z,100025.13
2023-01-15T04:18:56.841Z,100023.69
2023-01-15T04:21:24.430Z,100023.64
2023-01-15T04:23:51.491Z,100022.67
2023-01-15T04:26:18.371Z,100030.42
2023-01-15T04:28:45.292Z,100028.89
2023-01-15T04:31:12.233Z,100031.10
2023-01-15T04:33:40.179Z,100034.52
2023-01-15T04:36:07.125Z,100028.02
2023-01-15T04:38:34.041Z,100027.30
2023-01-15T04:41:23.182Z,100024.20
2023-01-15T04:44:08.739Z,100024.64
2023-01-15T04:46:36.803Z,100019.67
2023-01-15T04:49:04.983Z,100016.55
2023-01-15T04:51:31.946Z,100014.15
2023-01-15T04:53:59.441Z,100009.17
2023-01-15T04:56:26.367Z,100008.70
2023-01-15T04:58:53.325Z,100014.91
2023-01-15T05:01:20.333Z,100016.08
2023-01-15T05:03:47.529Z,100023.38
2023-01-15T05:06:14.607Z,100019.30
2023-01-15T05:08:42.259Z,100016.35
2023-01-15T05:11:09.507Z,100008.79
2023-01-15T05:13:36.448Z,100007.57
2023-01-15T05:16:14.963Z,100009.39
2023-01-15T05:18:42.881Z,100012.71
2023-01-15T05:21:23.259Z,100015.03
2023-01-15T05:23:51.519Z,100010.21
2023-01-15T05:26:18.965Z,100010.86
2023-01-15T05:28:46.922Z,100009.81
2023-01-15T05:31:15.727Z,100010.18
2023-01-15T05:33:43.166Z,100008.69
2023-01-15T05:36:11.962Z,100008.63
2023-01-15T05:38:39.125Z,100006.93
2023-01-15T05:41:30.318Z,100007.77
2023-01-15T05:43:57.567Z,100008.24
2023-01-15T05:46:25.071Z,100012.73
2023-01-15T05:48:52.095Z,100011.38
2023-01-15T05:51:19.028Z,100006.58
2023-01-15T05:53:46.098Z,100004.18
2023-01-15T05:56:12.953Z,100010.21
2023-01-15T05:58:39.896Z,100009.16
2023-01-15T06:01:10.081Z,100013.77
2023-01-15T06:03:37.031Z,100014.98
2023-01-15T06:06:04.333Z,100018.39
2023-01-15T06:08:31.283Z,100018.92
2023-01-15T06:10:58.246Z,100015.86
2023-01-15T06:13:25.283Z,100015.53
2023-01-15T06:15:52.262Z,100015.68
2023-01-15T06:18:19.292Z,100015.48
2023-01-15T06:20:46.240Z,100009.10
2023-01-15T06:23:13.206Z,100002.92
2023-01-15T06:25:40.071Z,100004.09
2023-01-15T06:28:07.643Z,100008.20
2023-01-15T06:30:34.656Z,100005.23
2023-01-15T06:33:01.834Z,100004.05
2023-01-15T06:35:28.768Z,100002.73
2023-01-15T06:37:55.715Z,100004.77
2023-01-15T06:40:23.624Z,100004.50
2023-01-15T06:43:09.273Z,100003.20
2023-01-15T06:45:59.569Z,100002.95
2023-01-15T06:48:26.832Z,100002.41
2023-01-15T06:50:54.077Z,99998.52
2023-01-15T06:53:21.537Z,99998.55
2023-01-15T06:55:48.474Z,99996.02
2023-01-15T06:58:15.439Z,99997.78
2023-01-15T07:00:43.897Z,99998.98
2023-01-15T07:03:14.371Z,100002.05
2023-01-15T07:05:41.718Z,100004.48
2023-01-15T07:08:08.761Z,100002.29
2023-01-15T07:10:35.921Z,100000.27
2023-01-15T07:13:02.867Z,99995.50
2023-01-15T07:15:31.361Z,99995.53
2023-01-15T07:17:58.262Z,99999.32
2023-01-15T07:20:25.252Z,99997.29
2023-01-15T07:22:52.318Z,100005.40
2023-01-15T07:25:19.361Z,100009.29
2023-01-15T07:27:47.131Z,100006.95
2023-01-15T07:30:14.806Z,100001.39
2023-01-15T07:32:42.113Z,100006.20
2023-01-15T07:35:10.286Z,100008.03
2023-01-15T07:37:38.239Z,100009.32
2023-01-15T07:40:05.669Z,100006.41
2023-01-15T07:42:51.356Z,100011.25
2023-01-15T07:45:37.132Z,100008.36
2023-01-15T07:48:24.545Z,100007.12
2023-01-15T07:50:51.499Z,100002.60
2023-01-15T07:53:18.448Z,100003.80
2023-01-15T07:55:45.396Z,100008.45
2023-01-15T07:58:12.209Z,100007.86
2023-01-15T08:00:41.171Z,100004.19
2023-01-15T08:03:09.464Z,100005.11
2023-01-15T08:05:36.306Z,100004.81
2023-01-15T08:08:03.228Z,100004.38
2023-01-15T08:10:30.190Z,100003.91
2023-01-15T08:13:15.959Z,100003.12
2023-01-15T08:15:44.248Z,100005.05
2023-01-15T08:18:11.246Z,100003.96
2023-01-15T08:20:38.662Z,100004.65
2023-01-15T08:23:05.700Z,100004.37
2023-01-15T08:25:32.858Z,100004.03
2023-01-15T08:28:03.377Z,100000.27
2023-01-15T08:30:30.447Z,99999.82
2023-01-15T08:33:02.486Z,99999.05
2023-01-15T08:35:29.386Z,99993.23
2023-01-15T08:37:56.324Z,99995.48
2023-01-15T08:40:23.463Z,99994.73
2023-01-15T08:42:50.525Z,99991.05
2023-01-15T08:45:17.474Z,99992.83
2023-01-15T08:47:44.422Z,99989.91
2023-01-15T08:50:11.585Z,99982.88
2023-01-15T08:52:39.059Z,99980.77
2023-01-15T08:55:06.675Z,99977.42
2023-01-15T08:57:33.761Z,99975.82
2023-01-15T09:00:00.709Z,99973.18
2023-01-15T09:02:29.986Z,99969.01
2023-01-15T09:04:57.046Z,99968.33
2023-01-15T09:07:24.033Z,99967.02
2023-01-15T09:09:51.070Z,99967.42
2023-01-15T09:12:18.017Z,99960.80
2023-01-15T09:14:56.364Z,99956.63
2023-01-15T09:17:28.501Z,99952.06
2023-01-15T09:19:55.553Z,99946.13
2023-01-15T09:22:22.520Z,99943.05
2023-01-15T09:24:49.488Z,99938.58
2023-01-15T09:27:16.408Z,99936.33
2023-01-15T09:29:43.303Z,99932.56
2023-01-15T09:32:10.821Z,99931.00
2023-01-15T09:34:37.715Z,99934.08
2023-01-15T09:37:04.548Z,99934.44
2023-01-15T09:39:31.603Z,99931.69
2023-01-15T09:42:10.910Z,99928.11
2023-01-15T09:45:05.707Z,99925.58
2023-01-15T09:47:51.573Z,99929.79
2023-01-15T09:50:21.641Z,99920.80
2023-01-15T09:52:54.783Z,99911.55
2023-01-15T09:55:29.826Z,99901.41
2023-01-15T09:58:01.380Z,99885.44
2023-01-15T10:00:30.073Z,99875.60
2023-01-15T10:03:23.282Z,99870.77
2023-01-15T10:06:27.437Z,99864.13
2023-01-15T10:09:15.445Z,99856.97
2023-01-15T10:12:12.074Z,99854.84
2023-01-15T10:15:01.637Z,99862.23
2023-01-15T10:17:29.951Z,99872.34
2023-01-15T10:19:56.872Z,99869.81
2023-01-15T10:22:32.935Z,99867.52
2023-01-15T10:24:59.885Z,99865.03
2023-01-15T10:27:28.819Z,99862.45
2023-01-15T10:30:12.107Z,99859.80
2023-01-15T10:33:01.457Z,99860.42
2023-01-15T10:35:32.519Z,99854.06
2023-01-15T10:38:16.477Z,99846.16
2023-01-15T10:40:59.096Z,99835.64
2023-01-15T10:43:45.047Z,99829.63
2023-01-15T10:46:14.371Z,99826.91
2023-01-15T10:48:57.267Z,99820.17
2023-01-15T10:51:28.161Z,99819.86
2023-01-15T10:54:27.699Z,99814.58
2023-01-15T10:57:02.709Z,99808.83
2023-01-15T10:59:53.013Z,99808.55
2023-01-15T11:02:37.624Z,99805.36
2023-01-15T11:05:05.230Z,99801.81
2023-01-15T11:07:38.129Z,99799.08
2023-01-15T11:10:07.207Z,99795.46
2023-01-15T11:12:53.102Z,99796.96
2023-01-15T11:15:43.747Z,99796.08
2023-01-15T11:18:44.144Z,99789.91
2023-01-15T11:21:19.472Z,99783.60
2023-01-15T11:23:46.360Z,99775.22
2023-01-15T11:26:24.169Z,99769.45
2023-01-15T11:28:51.248Z,99767.25
2023-01-15T11:31:18.339Z,99770.70
2023-01-15T11:34:05.631Z,99772.41
2023-01-15T11:36:33.101Z,99767.40
2023-01-15T11:39:00.039Z,99761.67
2023-01-15T11:41:46.946Z,99761.15
2023-01-15T11:44:32.967Z,99768.03
2023-01-15T11:47:18.601Z,99764.61
2023-01-15T11:50:14.213Z,99761.16
2023-01-15T11:52:55.229Z,99762.03
2023-01-15T11:55:25.300Z,99761.17
2023-01-15T11:57:52.249Z,99762.17
2023-01-15T12:00:29.150Z,99765.47
2023-01-15T12:03:00.645Z,99765.68
2023-01-15T12:05:29.888Z,99763.45
2023-01-15T12:08:02.989Z,99766.88
2023-01-15T12:11:25.571Z,99773.41
2023-01-15T12:13:56.480Z,99778.79
2023-01-15T12:16:42.051Z,99784.48
2023-01-15T12:19:11.948Z,99787.08
2023-01-15T12:21:59.576Z,99785.15
2023-01-15T12:24:54.333Z,99780.88
2023-01-15T12:27:21.240Z,99781.08
2023-01-15T12:30:28.670Z,99784.00
2023-01-15T12:33:17.732Z,99781.37
2023-01-15T12:35:48.412Z,99781.98
2023-01-15T12:38:20.740Z,99785.69
2023-01-15T12:40:50.212Z,99783.73
2023-01-15T12:43:42.156Z,99781.48
2023-01-15T12:46:12.783Z,99776.63
2023-01-15T12:49:03.546Z,99778.16
2023-01-15T12:51:52.194Z,99777.48
2023-01-15T12:54:21.588Z,99776.95
2023-01-15T12:57:04.319Z,99771.73
2023-01-15T12:59:34.848Z,99760.73
2023-01-15T13:02:34.048Z,99753.16
2023-01-15T13:05:17.597Z,99744.06
2023-01-15T13:07:55.197Z,99745.35
2023-01-15T13:10:26.984Z,99749.73
2023-01-15T13:12:54.328Z,99745.90
2023-01-15T13:15:22.094Z,99741.31
2023-01-15T13:18:05.620Z,99732.40
2023-01-15T13:20:44.693Z,99725.83
2023-01-15T13:23:26.328Z,99720.48
2023-01-15T13:26:05.762Z,99713.66
2023-01-15T13:28:48.509Z,99706.86
2023-01-15T13:31:35.678Z,99703.54
2023-01-15T13:34:06.624Z,99702.86
2023-01-15T13:36:40.582Z,99702.71
2023-01-15T13:39:07.591Z,99704.95
2023-01-15T13:41:53.274Z,99705.04
2023-01-15T13:44:24.964Z,99705.00
2023-01-15T13:47:12.654Z,99710.31
2023-01-15T13:49:42.045Z,99723.03
2023-01-15T13:52:08.970Z,99728.88
2023-01-15T13:54:40.057Z,99731.24
2023-01-15T13:57:19.590Z,99733.02
2023-01-15T13:59:47.968Z,99732.27
2023-01-15T14:02:25.406Z,99733.09
2023-01-15T14:04:52.516Z,99732.79
2023-01-15T14:07:39.659Z,99736.91
2023-01-15T14:10:31.954Z,99736.62
2023-01-15T14:13:35.437Z,99731.60
2023-01-15T14:16:21.473Z,99724.70
2023-01-15T14:19:05.926Z,99717.64
2023-01-15T14:21:42.024Z,99715.55
2023-01-15T14:24:18.621Z,99709.18
2023-01-15T14:26:54.763Z,99705.01
2023-01-15T14:29:43.158Z,99700.68
2023-01-15T14:32:26.663Z,99700.36
2023-01-15T14:34:55.577Z,99693.85
2023-01-15T14:37:30.925Z,99691.45
2023-01-15T14:40:00.139Z,99688.06
2023-01-15T14:42:59.361Z,99678.83
2023-01-15T14:45:43.531Z,99676.28
2023-01-15T14:48:21.934Z,99673.46
2023-01-15T14:50:50.184Z,99672.20
2023-01-15T14:53:43.198Z,99668.39
2023-01-15T14:56:25.533Z,99671.99
2023-01-15T14:59:08.976Z,99672.86
2023-01-15T15:01:56.076Z,99673.34
2023-01-15T15:04:53.865Z,99674.55
2023-01-15T15:07:25.900Z,99669.91
2023-01-15T15:10:12.199Z,99665.81
2023-01-15T15:12:45.284Z,99662.22
2023-01-15T15:15:29.425Z,99664.25
2023-01-15T15:18:06.254Z,99660.82
2023-01-15T15:21:02.956Z,99661.02
2023-01-15T15:23:47.288Z,99664.13
2023-01-15T15:26:34.024Z,99660.23
2023-01-15T15:29:20.403Z,99657.86
2023-01-15T15:32:08.863Z,99655.48
2023-01-15T15:34:40.681Z,99655.65
2023-01-15T15:37:27.901Z,99654.10
2023-01-15T15:40:20.328Z,99656.19
2023-01-15T15:43:30.972Z,99658.08
2023-01-15T15:46:16.734Z,99655.60
2023-01-15T15:48:53.393Z,99661.08
2023-01-15T15:51:35.140Z,99665.72
2023-01-15T15:54:16.303Z,99666.80
2023-01-15T15:57:11.277Z,99667.67
2023-01-15T15:59:46.629Z,99668.88
2023-01-15T16:02:25.218Z,99665.96
2023-01-15T16:04:53.910Z,99662.16
2023-01-15T16:07:29.695Z,99663.45
2023-01-15T16:09:58.882Z,99667.98
2023-01-15T16:12:27.467Z,99660.36
2023-01-15T16:14:54.313Z,99657.05
2023-01-15T16:17:21.182Z,99652.26
2023-01-15T16:19:48.117Z,99655.52
2023-01-15T16:22:17.069Z,99652.15
2023-01-15T16:24:56.274Z,99651.85
2023-01-15T16:27:24.731Z,99640.39
2023-01-15T16:29:52.985Z,99639.89
2023-01-15T16:32:39.343Z,99636.45
2023-01-15T16:35:08.567Z,99634.91
2023-01-15T16:37:36.079Z,99634.91
2023-01-15T16:40:04.310Z,99633.70
2023-01-15T16:42:35.789Z,99633.70
2023-01-15T16:45:20.960Z,99623.91
2023-01-15T16:48:03.326Z,99619.94
2023-01-15T16:50:31.776Z,99615.11
2023-01-15T16:53:01.900Z,99622.84
2023-01-15T16:55:35.925Z,99620.13
2023-01-15T16:58:12.103Z,99620.66
2023-01-15T17:00:43.808Z,99623.09
2023-01-15T17:03:14.680Z,99626.52
2023-01-15T17:05:41.601Z,99625.64
2023-01-15T17:08:22.628Z,99622.73
2023-01-15T17:10:54.412Z,99619.23
2023-01-15T17:13:21.452Z,99621.79
2023-01-15T17:15:49.379Z,99619.17
2023-01-15T17:18:21.522Z,99621.05
2023-01-15T17:20:48.454Z,99622.98
2023-01-15T17:23:15.443Z,99619.75
2023-01-15T17:25:42.477Z,99621.66
2023-01-15T17:28:12.728Z,99619.41
2023-01-15T17:30:39.912Z,99616.13
2023-01-15T17:33:07.693Z,99614.20
2023-01-15T17:35:36.561Z,99610.05
2023-01-15T17:38:04.512Z,99607.99
2023-01-15T17:40:32.921Z,99604.33
2023-01-15T17:42:59.979Z,99595.53
2023-01-15T17:45:28.331Z,99586.92
2023-01-15T17:47:55.292Z,99586.53
2023-01-15T17:50:22.335Z,99583.95
2023-01-15T17:52:49.429Z,99584.77
2023-01-15T17:55:36.596Z,99579.96
2023-01-15T17:58:22.321Z,99569.16
2023-01-15T18:01:07.921Z,99565.56
2023-01-15T18:03:53.841Z,99560.09
2023-01-15T18:06:23.149Z,99561.47
2023-01-15T18:08:53.975Z,99556.33
2023-01-15T18:11:21.598Z,99553.55
2023-01-15T18:13:48.600Z,99551.02
2023-01-15T18:16:17.797Z,99544.00
2023-01-15T18:18:44.886Z,99541.27
2023-01-15T18:21:11.982Z,99542.79
2023-01-15T18:23:39.713Z,99539.70
2023-01-15T18:26:07.791Z,99533.02
2023-01-15T18:28:35.864Z,99534.23
2023-01-15T18:31:03.139Z,99531.63
2023-01-15T18:33:30.546Z,99526.95
2023-01-15T18:36:11.568Z,99524.69
2023-01-15T18:38:40.500Z,99525.88
2023-01-15T18:41:12.397Z,99524.00
2023-01-15T18:43:58.182Z,99522.27
2023-01-15T18:46:43.616Z,99521.39
2023-01-15T18:49:10.590Z,99520.49
2023-01-15T18:51:37.549Z,99520.46
2023-01-15T18:54:06.354Z,99518.08
2023-01-15T18:56:39.367Z,99519.98
2023-01-15T18:59:08.288Z,99511.39
2023-01-15T19:01:35.413Z,99512.42
2023-01-15T19:04:02.949Z,99515.16
2023-01-15T19:06:29.995Z,99511.23
2023-01-15T19:08:58.097Z,99510.00
2023-01-15T19:11:25.022Z,99508.63
2023-01-15T19:14:11.927Z,99506.93
2023-01-15T19:16:57.702Z,99511.59
2023-01-15T19:19:24.560Z,99513.61
2023-01-15T19:22:11.491Z,99513.59
2023-01-15T19:24:38.928Z,99508.76
2023-01-15T19:27:05.872Z,99510.11
2023-01-15T19:29:32.966Z,99509.06
2023-01-15T19:31:59.983Z,99502.83
2023-01-15T19:34:34.581Z,99503.01
2023-01-15T19:37:01.700Z,99503.81
2023-01-15T19:39:29.239Z,99500.05
2023-01-15T19:42:15.417Z,99501.77
2023-01-15T19:45:01.300Z,99501.96
2023-01-15T19:47:48.910Z,99509.68
2023-01-15T19:50:20.343Z,99505.02
2023-01-15T19:52:56.841Z,99507.39
2023-01-15T19:55:24.414Z,99508.59
2023-01-15T19:58:02.759Z,99507.20
2023-01-15T20:00:30.181Z,99502.23
2023-01-15T20:02:57.398Z,99497.79
2023-01-15T20:05:28.384Z,99495.56
2023-01-15T20:07:55.475Z,99492.81
2023-01-15T20:10:23.722Z,99491.62
2023-01-15T20:13:09.483Z,99487.51
2023-01-15T20:15:38.119Z,99482.89
2023-01-15T20:18:05.107Z,99474.96
2023-01-15T20:20:32.094Z,99475.45
2023-01-15T20:22:59.044Z,99474.91
2023-01-15T20:25:29.510Z,99467.71
2023-01-15T20:27:57.353Z,99465.98
2023-01-15T20:30:24.707Z,99471.80
2023-01-15T20:32:53.276Z,99472.63
2023-01-15T20:35:31.637Z,99474.67
2023-01-15T20:37:58.778Z,99470.42
2023-01-15T20:40:26.218Z,99472.83
2023-01-15T20:43:12.515Z,99474.20
2023-01-15T20:45:39.888Z,99475.23
2023-01-15T20:48:12.792Z,99477.10
2023-01-15T20:50:42.371Z,99477.58
2023-01-15T20:53:09.836Z,99476.21
2023-01-15T20:55:53.805Z,99479.95
2023-01-15T20:58:24.963Z,99479.62
2023-01-15T21:00:52.914Z,99481.83
2023-01-15T21:03:20.849Z,99479.55
2023-01-15T21:05:47.965Z,99481.86
2023-01-15T21:08:15.006Z,99486.52
2023-01-15T21:10:43.162Z,99484.39
2023-01-15T21:13:10.409Z,99484.23
2023-01-15T21:15:37.357Z,99481.83
2023-01-15T21:18:04.352Z,99480.64
2023-01-15T21:20:31.367Z,99483.40
2023-01-15T21:22:58.416Z,99486.43
2023-01-15T21:25:25.718Z,99489.88
2023-01-15T21:27:53.139Z,99487.80
2023-01-15T21:30:21.929Z,99488.10
2023-01-15T21:32:49.288Z,99482.57
2023-01-15T21:35:16.619Z,99484.66
2023-01-15T21:37:43.617Z,99484.70
2023-01-15T21:40:11.495Z,99483.69
2023-01-15T21:42:57.251Z,99480.27
2023-01-15T21:45:24.306Z,99479.64
2023-01-15T21:47:51.260Z,99476.06
2023-01-15T21:50:18.309Z,99470.83
2023-01-15T21:52:45.372Z,99471.96
2023-01-15T21:55:13.570Z,99473.87
2023-01-15T21:57:40.829Z,99474.02
2023-01-15T22:00:08.551Z,99469.91
2023-01-15T22:02:36.212Z,99467.35
2023-01-15T22:05:04.659Z,99468.91
2023-01-15T22:07:31.809Z,99466.52
2023-01-15T22:09:58.662Z,99463.75
2023-01-15T22:12:25.681Z,99461.69
2023-01-15T22:14:54.008Z,99451.62
2023-01-15T22:17:21.216Z,99452.67
2023-01-15T22:19:51.239Z,99453.89
2023-01-15T22:22:18.298Z,99454.91
2023-01-15T22:24:45.453Z,99461.27
2023-01-15T22:27:15.037Z,99455.64
2023-01-15T22:29:43.621Z,99445.02
2023-01-15T22:32:11.959Z,99444.52
2023-01-15T22:34:39.195Z,99438.16
2023-01-15T22:37:06.246Z,99437.95
2023-01-15T22:39:33.395Z,99434.38
2023-01-15T22:42:18.976Z,99425.65
2023-01-15T22:44:46.028Z,99420.04
2023-01-15T22:47:13.071Z,99426.94
2023-01-15T22:49:40.039Z,99425.43
2023-01-15T22:52:07.091Z,99423.70
2023-01-15T22:54:34.136Z,99418.39
2023-01-15T22:57:01.091Z,99412.37
2023-01-15T22:59:28.043Z,99420.24
2023-01-15T23:01:55.447Z,99422.30
2023-01-15T23:04:24.226Z,99422.12
2023-01-15T23:06:52.075Z,99424.36
2023-01-15T23:09:20.138Z,99419.76
2023-01-15T23:11:46.996Z,99417.90
2023-01-15T23:14:15.862Z,99412.06
2023-01-15T23:16:43.480Z,99413.38
2023-01-15T23:19:10.703Z,99408.79
2023-01-15T23:21:38.475Z,99408.48
2023-01-15T23:24:05.854Z,99404.57
2023-01-15T23:26:33.332Z,99404.39
2023-01-15T23:29:00.349Z,99399.23
2023-01-15T23:31:27.653Z,99394.25
2023-01-15T23:33:54.664Z,99398.02
2023-01-15T23:36:22.225Z,99393.52
2023-01-15T23:38:49.172Z,99395.74
2023-01-15T23:41:17.663Z,99396.48
2023-01-15T23:44:03.440Z,99390.98
2023-01-15T23:46:33.405Z,99385.48
2023-01-15T23:49:10.437Z,99383.58
2023-01-15T23:51:37.604Z,99383.04
2023-01-15T23:54:05.599Z,99384.92
2023-01-15T23:56:33.062Z,99383.39
2023-01-15T23:59:00.101Z,99375.00
